aviador You're here:

LFAQ Decoded Metar

ALBERT in FRANCE
Report Time2017-03-23 02:00:00
UTC Time2017-03-23 02:19:51
Flight Rules vfr VFR
Wind110° at 10 kt
W.Decomp.*RWY 09: 9.3 kt HW 3.6 kt RCW
W.Rank110° ranks 32
Current wind is above 110° avg. (6.7)
Visibility9999 m
Phenomena:N/A
Clouds:N/A
Expected CloudBase > 800 ft AGL from Temp-Dew spread
CeilingNone
Temp05°C (ISA -9)
Dew Point03°C (87% RH)
AAT-0.1°C
QNH1010 hPa
Density Alt-551 ft
Elevation364 ft
Report Wrong Elevation
Raw Report
METAR LFAQ 230200Z AUTO 11010KT CAVOK 05/03 Q1010=

Extra information for LFAQ:More info

Metar Taf Metar & Taf Last 4 Metars F.Rules Stats Wind Profile Meteogram Temp Stats Airport Information Weather charts Add Link Nearby VenuesMetar ALERT Operation Metar Decoded Social comments